首页
METAR-TAF:

METAR-TAF

机场 :

Palm Beach International Airport

西棕榈滩, 佛罗里达州, 美国

纬度: 26-41-05N, 经度: 080-05-58W, 海拔: 5米

当前天气观测

该预报发布于1小时和2分钟前的14:53 UTC
风速10节,风向东转东南
温度 32°C
湿度 71%
气压 1019 hPa
能見度: 16.1公里
散云层高于2600英尺
散云层高于25000英尺

METAR: KPBI 211453Z 12010KT 10SM SCT026 SCT250 32/26 A3008 RMK AO2 SLP187 T03220256 51007

时间: 11:55 (15:55 UTC)

预报

该预报发布于52分钟前的15:03 UTC
预报有效从21日的 15点(UTC)到 22日的 12点(UTC)
风速10节,风向东转东南
能見度: 10公里
散云层高于2500英尺, 积雨云.
多云层高于5000英尺
附近有雷暴
从 22日的 0000点(UTC)
风速8节,风向东转东南
能見度: 10公里
散云层高于2500英尺
散云层高于5000英尺
多云层高于25000英尺
附近有阵雨
从 22日的 0600点(UTC)
风速5节,风向
能見度: 10公里
散云层高于2500英尺, 积雨云.
多云层高于5000英尺
附近有雷暴,

TAF: KPBI 211503Z 2115/2212 11010KT P6SM VCTS SCT025CB BKN050 FM220000 11008KT P6SM VCSH SCT025 SCT050 BKN250 FM220600 10005KT P6SM VCTS SCT025CB BKN050

超过4000个机场的气象观测和天气预报(METAR&TAF报告)。

可查询的气象台以黄色和红色小点在地图上表示。

将鼠标移到小点上方,可查看气象台名称。

然后点击查看天气观测和预报。

如需切换地图:点击带黑十字的绿色按钮放大地图;点击带横线的绿色按钮缩小地图;或者点击绿色箭头查看邻近地区的地图。


METAR-TAF: